Time;durP1;ratioP1;P1;durP2;ratioP2;P2;SDS_P1;SDS_P2;PMS_P1;PMS_P2;Temp;Humidity;BMP_temperature;BMP_pressure;BME280_temperature;BME280_humidity;BME280_pressure;Samples;Min_cycle;Max_cycle;Signal;HPM_P1;HPM_P2
2022/11/13 00:00:52;;;;;;;13.60;5.60;;;2.30;99.90;;;;;;5031250;28;20429;-66
2022/11/13 00:03:17;;;;;;;9.80;5.13;;;2.40;99.90;;;;;;5042111;28;20203;-66
2022/11/13 00:05:43;;;;;;;14.20;5.93;;;2.40;99.90;;;;;;5032783;28;20800;-66
2022/11/13 00:08:09;;;;;;;13.50;6.20;;;2.40;99.90;;;;;;5034003;28;20178;-66
2022/11/13 00:10:34;;;;;;;9.37;5.00;;;2.40;99.90;;;;;;5034054;28;20202;-66
2022/11/13 00:13:00;;;;;;;14.10;6.97;;;2.30;99.90;;;;;;5032114;28;20232;-66
2022/11/13 00:15:26;;;;;;;9.20;5.07;;;2.30;99.90;;;;;;5033588;28;20220;-66
2022/11/13 00:17:51;;;;;;;14.67;6.87;;;2.30;99.90;;;;;;5033819;28;20634;-66
2022/11/13 00:20:18;;;;;;;9.30;5.80;;;2.20;99.90;;;;;;5041928;28;20206;-66
2022/11/13 00:22:44;;;;;;;11.10;5.43;;;2.30;99.90;;;;;;5038049;28;20191;-66
2022/11/13 00:25:09;;;;;;;12.87;6.50;;;2.30;99.90;;;;;;5033700;28;20969;-66
2022/11/13 00:27:35;;;;;;;14.10;5.90;;;2.30;99.90;;;;;;5033324;28;20509;-66
2022/11/13 00:30:01;;;;;;;20.97;7.23;;;2.40;99.90;;;;;;5032894;28;20193;-66
2022/11/13 00:32:27;;;;;;;12.13;5.87;;;2.40;99.90;;;;;;5033257;28;20236;-66
2022/11/13 00:34:52;;;;;;;13.40;5.60;;;2.50;99.90;;;;;;5041922;28;20424;-66
2022/11/13 00:37:18;;;;;;;16.03;6.70;;;2.50;99.90;;;;;;5043362;28;20186;-66
2022/11/13 00:39:44;;;;;;;28.93;9.37;;;2.50;99.90;;;;;;5033477;28;20679;-66
2022/11/13 00:42:09;;;;;;;23.73;10.53;;;2.50;99.90;;;;;;5032856;28;20193;-66
2022/11/13 00:44:35;;;;;;;14.50;7.90;;;2.50;99.90;;;;;;5032658;28;20228;-66
2022/11/13 00:47:00;;;;;;;16.00;7.33;;;2.50;99.90;;;;;;5033225;28;20186;-66
2022/11/13 00:49:26;;;;;;;16.33;5.97;;;2.40;99.90;;;;;;5033246;28;20693;-66
2022/11/13 00:51:52;;;;;;;11.07;5.10;;;2.40;99.90;;;;;;5032710;28;20186;-66
2022/11/13 00:54:17;;;;;;;19.00;8.73;;;2.40;99.90;;;;;;5033012;28;20202;-66
2022/11/13 00:56:43;;;;;;;14.70;7.77;;;2.40;99.90;;;;;;5032929;28;20539;-66
2022/11/13 00:59:09;;;;;;;13.20;7.03;;;2.40;99.90;;;;;;5032061;28;20257;-66
2022/11/13 01:01:34;;;;;;;9.20;4.83;;;2.40;99.90;;;;;;5032699;28;20178;-66
2022/11/13 01:04:00;;;;;;;13.33;6.40;;;2.40;99.90;;;;;;5032825;28;20183;-66
2022/11/13 01:06:27;;;;;;;8.13;5.23;;;2.40;99.90;;;;;;5032977;28;20198;-66
2022/11/13 01:08:55;;;;;;;10.03;6.20;;;2.40;99.90;;;;;;5032786;28;20182;-66
2022/11/13 01:11:24;;;;;;;12.50;5.60;;;2.30;99.90;;;;;;5032636;28;20467;-66
2022/11/13 01:13:51;;;;;;;12.93;7.00;;;2.30;99.90;;;;;;5031721;28;20421;-66
2022/11/13 01:16:20;;;;;;;11.03;5.50;;;2.30;99.90;;;;;;5031858;28;20443;-66
2022/11/13 01:18:45;;;;;;;15.90;6.40;;;2.20;99.90;;;;;;5032606;28;21046;-66
2022/11/13 01:21:17;;;;;;;15.97;6.53;;;2.20;99.90;;;;;;5045564;28;20417;-66
2022/11/13 01:23:42;;;;;;;12.70;5.50;;;2.10;99.90;;;;;;5038136;28;20178;-66
2022/11/13 01:26:11;;;;;;;8.70;4.30;;;2.10;99.90;;;;;;5041873;28;20436;-66
2022/11/13 01:28:37;;;;;;;13.53;5.80;;;2.10;99.90;;;;;;5040383;28;20782;-66
2022/11/13 01:31:07;;;;;;;17.00;5.40;;;2.20;99.90;;;;;;5032576;28;20765;-66
2022/11/13 01:33:33;;;;;;;11.60;5.83;;;2.10;99.90;;;;;;5018876;28;20920;-66
2022/11/13 01:36:01;;;;;;;9.47;4.27;;;2.00;99.90;;;;;;5046022;28;20454;-66
2022/11/13 01:38:26;;;;;;;17.20;5.67;;;2.00;99.90;;;;;;5040874;28;20444;-65
2022/11/13 01:40:52;;;;;;;7.20;4.27;;;1.90;99.90;;;;;;5032306;28;20494;-66
2022/11/13 01:43:23;;;;;;;9.27;4.83;;;1.90;99.90;;;;;;5031330;28;20629;-66
2022/11/13 01:45:58;;;;;;;4.90;3.73;;;1.80;99.90;;;;;;5032653;28;20190;-66
2022/11/13 01:48:35;;;;;;;11.23;4.60;;;1.80;99.90;;;;;;5027419;28;20774;-66
2022/11/13 01:51:03;;;;;;;11.17;5.87;;;1.80;99.90;;;;;;5020772;28;20852;-65
2022/11/13 01:53:29;;;;;;;11.10;5.70;;;1.80;99.90;;;;;;5032811;28;20448;-66
2022/11/13 01:55:55;;;;;;;11.83;5.27;;;1.90;99.90;;;;;;5033791;28;20425;-66
2022/11/13 01:58:21;;;;;;;12.07;4.40;;;1.90;99.90;;;;;;5032679;28;20452;-66
2022/11/13 02:00:46;;;;;;;12.43;5.03;;;1.90;99.90;;;;;;5032418;28;20456;-66
2022/11/13 02:03:12;;;;;;;17.70;4.83;;;1.90;99.90;;;;;;5021610;28;20266;-66
2022/11/13 02:05:38;;;;;;;15.47;7.23;;;1.90;99.90;;;;;;5038034;28;20190;-66
2022/11/13 02:08:03;;;;;;;17.03;6.00;;;1.90;99.90;;;;;;5031964;28;20186;-66
2022/11/13 02:10:29;;;;;;;10.40;5.50;;;1.90;99.90;;;;;;5032272;28;20190;-66
2022/11/13 02:12:55;;;;;;;6.57;4.87;;;1.80;99.90;;;;;;5030488;28;20178;-64
2022/11/13 02:15:24;;;;;;;12.07;6.13;;;1.80;99.90;;;;;;5038166;28;20255;-64
2022/11/13 02:17:54;;;;;;;7.57;5.10;;;1.90;99.90;;;;;;5042466;28;20889;-64
2022/11/13 02:20:30;;;;;;;11.63;6.10;;;1.90;99.90;;;;;;5032245;28;20461;-64
2022/11/13 02:23:12;;;;;;;10.87;5.20;;;1.90;99.90;;;;;;5031114;28;20415;-64
2022/11/13 02:25:40;;;;;;;9.93;4.77;;;1.90;99.90;;;;;;5031800;28;20440;-65
2022/11/13 02:28:06;;;;;;;10.90;4.53;;;1.80;99.90;;;;;;5030684;28;20433;-65
2022/11/13 02:30:34;;;;;;;10.33;4.70;;;1.80;99.90;;;;;;5031337;28;20413;-65
2022/11/13 02:33:00;;;;;;;11.77;4.87;;;1.70;99.90;;;;;;5030977;28;20541;-65
2022/11/13 02:35:33;;;;;;;10.97;5.40;;;1.70;99.90;;;;;;5044084;28;20948;-65
2022/11/13 02:38:02;;;;;;;7.60;4.43;;;1.70;99.90;;;;;;5018783;28;20226;-65
2022/11/13 02:40:28;;;;;;;10.77;4.17;;;1.60;99.90;;;;;;5031101;28;20568;-65
2022/11/13 02:42:54;;;;;;;11.40;5.17;;;1.60;99.90;;;;;;5030329;28;20429;-65
2022/11/13 02:45:20;;;;;;;8.73;4.73;;;1.60;99.90;;;;;;5030889;28;20511;-65
2022/11/13 02:47:45;;;;;;;11.37;5.20;;;1.60;99.90;;;;;;5031555;28;20576;-65
2022/11/13 02:50:11;;;;;;;5.90;3.97;;;1.60;99.90;;;;;;5031248;28;20643;-65
2022/11/13 02:52:37;;;;;;;6.80;4.13;;;1.50;99.90;;;;;;5030720;28;20194;-65
2022/11/13 02:55:04;;;;;;;8.80;4.80;;;1.40;99.90;;;;;;5031175;28;20471;-65
2022/11/13 02:57:29;;;;;;;12.37;5.50;;;1.30;99.90;;;;;;5031379;28;20584;-65
2022/11/13 02:59:55;;;;;;;9.20;4.57;;;1.20;99.90;;;;;;5030555;28;20965;-65
2022/11/13 03:02:21;;;;;;;11.33;5.17;;;1.10;99.90;;;;;;5030891;28;20218;-65
2022/11/13 03:04:46;;;;;;;8.10;4.20;;;1.10;99.90;;;;;;5037817;28;20220;-65
2022/11/13 03:07:12;;;;;;;6.80;4.43;;;1.10;99.90;;;;;;5045433;28;20187;-65
2022/11/13 03:09:41;;;;;;;8.93;4.83;;;1.10;99.90;;;;;;5049960;28;20227;-65
2022/11/13 03:12:08;;;;;;;8.80;4.87;;;1.20;99.90;;;;;;5030072;28;20839;-65
2022/11/13 03:14:34;;;;;;;11.43;5.73;;;1.20;99.90;;;;;;5042689;28;20533;-65
2022/11/13 03:17:00;;;;;;;8.80;4.93;;;1.20;99.90;;;;;;5037865;28;20503;-65
2022/11/13 03:19:26;;;;;;;7.70;4.50;;;1.20;99.90;;;;;;5036936;28;20245;-65
2022/11/13 03:21:51;;;;;;;11.50;5.53;;;1.10;99.90;;;;;;5030340;28;20954;-65
2022/11/13 03:24:17;;;;;;;9.57;6.00;;;1.10;99.90;;;;;;5030003;28;20421;-65
2022/11/13 03:26:43;;;;;;;9.37;5.27;;;1.00;99.90;;;;;;5030301;28;20210;-65
2022/11/13 03:29:08;;;;;;;9.00;4.70;;;1.00;99.90;;;;;;5012699;28;20252;-65
2022/11/13 03:31:34;;;;;;;5.60;2.87;;;1.00;99.90;;;;;;5030239;28;20527;-65
2022/11/13 03:34:00;;;;;;;4.90;3.27;;;1.00;99.90;;;;;;5036255;28;20224;-65
2022/11/13 03:36:25;;;;;;;5.63;3.53;;;1.00;99.90;;;;;;5038234;28;20554;-65
2022/11/13 03:38:51;;;;;;;7.60;3.80;;;1.00;99.90;;;;;;5030169;28;20297;-65
2022/11/13 03:41:17;;;;;;;6.03;3.60;;;1.00;99.90;;;;;;5033732;28;20259;-65
2022/11/13 03:43:43;;;;;;;9.60;4.00;;;1.00;99.90;;;;;;5032644;28;20417;-65
2022/11/13 03:46:08;;;;;;;11.37;5.23;;;1.00;99.90;;;;;;5033680;28;20170;-65
2022/11/13 03:48:34;;;;;;;10.00;3.70;;;0.90;99.90;;;;;;5033460;28;20362;-65
2022/11/13 03:51:01;;;;;;;4.67;3.17;;;0.90;99.90;;;;;;5033578;28;20597;-65
2022/11/13 03:53:27;;;;;;;4.63;3.00;;;0.90;99.90;;;;;;5035098;28;20518;-65
2022/11/13 03:55:52;;;;;;;11.80;4.20;;;0.90;99.90;;;;;;5047977;28;20415;-65
2022/11/13 03:58:19;;;;;;;4.07;2.80;;;0.80;99.90;;;;;;5033461;28;20193;-65
2022/11/13 04:00:45;;;;;;;4.77;2.93;;;0.90;99.90;;;;;;5033103;28;20277;-65
2022/11/13 04:03:11;;;;;;;8.30;4.97;;;0.80;99.90;;;;;;5027872;28;20900;-65
2022/11/13 04:05:37;;;;;;;5.53;3.67;;;0.90;99.90;;;;;;5043136;28;20413;-65
2022/11/13 04:08:03;;;;;;;5.70;3.27;;;0.80;99.90;;;;;;5037369;28;20543;-65
2022/11/13 04:10:29;;;;;;;3.83;3.03;;;0.80;99.90;;;;;;5033593;28;20733;-65
2022/11/13 04:12:54;;;;;;;5.57;3.47;;;0.80;99.90;;;;;;5032081;28;20182;-65
2022/11/13 04:15:20;;;;;;;5.70;2.37;;;0.80;99.90;;;;;;5031987;28;20427;-65
2022/11/13 04:17:46;;;;;;;5.00;3.60;;;0.80;99.90;;;;;;5032985;28;20706;-65
2022/11/13 04:20:12;;;;;;;10.47;3.60;;;0.80;99.90;;;;;;5040488;28;20629;-65
2022/11/13 04:22:37;;;;;;;9.50;3.50;;;0.90;99.90;;;;;;5038192;28;20508;-65
2022/11/13 04:25:05;;;;;;;6.20;3.07;;;0.90;99.90;;;;;;5032891;28;20187;-65
2022/11/13 04:27:30;;;;;;;6.43;3.83;;;0.80;99.90;;;;;;5032775;28;20186;-65
2022/11/13 04:29:56;;;;;;;4.70;2.57;;;0.80;99.90;;;;;;5032183;28;20961;-65
2022/11/13 04:32:22;;;;;;;8.23;3.83;;;0.70;99.90;;;;;;5044889;28;20615;-65
2022/11/13 04:34:48;;;;;;;6.13;3.73;;;0.70;99.90;;;;;;5045740;28;20512;-65
2022/11/13 04:37:13;;;;;;;5.63;3.13;;;0.70;99.90;;;;;;5034198;28;20190;-65
2022/11/13 04:39:39;;;;;;;12.20;4.13;;;0.70;99.90;;;;;;5032534;28;20198;-65
2022/11/13 04:44:49;;;;;;;5.40;3.20;;;0.70;99.90;;;;;;5038903;28;20180;-65
2022/11/13 04:47:14;;;;;;;4.23;2.60;;;0.70;99.90;;;;;;5040801;28;20417;-65
2022/11/13 04:49:40;;;;;;;6.77;2.97;;;0.70;99.90;;;;;;5032403;28;20708;-65
2022/11/13 04:52:06;;;;;;;7.77;3.10;;;0.60;99.90;;;;;;5031075;28;20296;-65
2022/11/13 04:54:31;;;;;;;5.37;3.13;;;0.50;99.90;;;;;;5032092;28;20198;-65
2022/11/13 04:56:57;;;;;;;5.33;2.97;;;0.50;99.90;;;;;;5031977;28;20241;-65
2022/11/13 04:59:23;;;;;;;6.03;3.03;;;0.40;99.90;;;;;;5031477;28;20204;-65
2022/11/13 05:01:49;;;;;;;4.40;3.00;;;0.40;99.90;;;;;;5014126;28;20187;-65
2022/11/13 05:04:15;;;;;;;7.33;3.17;;;0.40;99.90;;;;;;5031981;28;20459;-65
2022/11/13 05:06:41;;;;;;;4.10;2.80;;;0.50;99.90;;;;;;5032172;28;20413;-65
2022/11/13 05:09:06;;;;;;;2.93;2.00;;;0.60;99.90;;;;;;5031767;28;20471;-65
2022/11/13 05:11:32;;;;;;;5.43;3.20;;;0.60;99.90;;;;;;5031273;28;20209;-65
2022/11/13 05:13:58;;;;;;;4.60;2.53;;;0.70;99.90;;;;;;5031023;28;20190;-65
2022/11/13 05:16:23;;;;;;;5.43;2.63;;;0.60;99.90;;;;;;5031973;28;20214;-65
2022/11/13 05:18:49;;;;;;;6.13;3.57;;;0.60;99.90;;;;;;5031845;28;20190;-65
2022/11/13 05:21:15;;;;;;;6.90;3.03;;;0.50;99.90;;;;;;5032191;28;20624;-65
2022/11/13 05:23:40;;;;;;;6.50;3.60;;;0.60;99.90;;;;;;5031883;28;20186;-65
2022/11/13 05:26:09;;;;;;;4.97;3.03;;;0.60;99.90;;;;;;5031766;28;20186;-65
2022/11/13 05:28:34;;;;;;;4.33;2.57;;;0.60;99.90;;;;;;5030928;28;20202;-65
2022/11/13 05:31:10;;;;;;;9.80;3.90;;;0.70;99.90;;;;;;5031962;28;20845;-65
2022/11/13 05:33:37;;;;;;;8.50;4.10;;;0.70;99.90;;;;;;5036511;28;20189;-65
2022/11/13 05:36:06;;;;;;;8.23;4.20;;;0.70;99.90;;;;;;5041077;28;20428;-65
2022/11/13 05:38:32;;;;;;;8.13;3.43;;;0.70;99.90;;;;;;5039353;28;20417;-65
2022/11/13 05:41:21;;;;;;;9.30;4.50;;;0.70;99.90;;;;;;5031465;28;20472;-65
2022/11/13 05:43:48;;;;;;;6.80;3.90;;;0.60;99.90;;;;;;5020143;28;20547;-65
2022/11/13 05:46:22;;;;;;;9.97;5.00;;;0.60;99.90;;;;;;5031342;28;21012;-65
2022/11/13 05:48:56;;;;;;;5.70;3.47;;;0.60;99.90;;;;;;5031472;28;20193;-65
2022/11/13 05:51:28;;;;;;;13.47;4.97;;;0.60;99.90;;;;;;5031234;28;20420;-65
2022/11/13 05:53:54;;;;;;;8.17;4.20;;;0.50;99.90;;;;;;5030802;28;20441;-65
2022/11/13 05:56:39;;;;;;;8.57;4.17;;;0.50;99.90;;;;;;5031797;28;20417;-65
2022/11/13 05:59:05;;;;;;;7.03;3.90;;;0.50;99.90;;;;;;5028597;28;20468;-65
2022/11/13 06:01:35;;;;;;;6.83;3.50;;;0.60;99.90;;;;;;5030762;28;20536;-65
2022/11/13 06:04:02;;;;;;;6.53;3.30;;;0.70;99.90;;;;;;5024510;28;20171;-65
2022/11/13 06:06:29;;;;;;;5.80;3.67;;;0.70;99.90;;;;;;5045870;28;20781;-65
2022/11/13 06:08:56;;;;;;;7.73;3.43;;;0.70;99.90;;;;;;5050711;28;20462;-65
2022/11/13 06:11:24;;;;;;;7.03;3.43;;;0.80;99.90;;;;;;5036939;28;20457;-65
2022/11/13 06:13:51;;;;;;;7.37;3.40;;;0.80;99.90;;;;;;5049192;28;20417;-65
2022/11/13 06:16:23;;;;;;;7.50;3.27;;;0.80;99.90;;;;;;5034425;28;20768;-65
2022/11/13 06:18:53;;;;;;;7.40;4.00;;;0.80;99.90;;;;;;5040344;28;20447;-65
2022/11/13 06:21:21;;;;;;;8.67;4.93;;;0.80;99.90;;;;;;5047110;28;20942;-65
2022/11/13 06:23:47;;;;;;;17.83;6.50;;;0.70;99.90;;;;;;5037336;28;20420;-65
2022/11/13 06:26:18;;;;;;;16.87;6.20;;;0.70;99.90;;;;;;5041294;28;20437;-65
2022/11/13 06:28:44;;;;;;;15.83;7.37;;;0.70;99.90;;;;;;5038715;28;20428;-65
2022/11/13 06:31:13;;;;;;;18.23;7.13;;;0.70;99.90;;;;;;5031526;28;20417;-65
2022/11/13 06:33:40;;;;;;;11.60;5.73;;;0.70;99.90;;;;;;5018277;28;20455;-65
2022/11/13 06:36:11;;;;;;;10.67;5.77;;;0.70;99.90;;;;;;5040170;28;20432;-65
2022/11/13 06:38:39;;;;;;;10.47;5.50;;;0.70;99.90;;;;;;5031312;28;20425;-65
2022/11/13 06:41:05;;;;;;;8.97;4.83;;;0.70;99.90;;;;;;5031531;28;20879;-65
2022/11/13 06:43:31;;;;;;;7.57;4.23;;;0.80;99.90;;;;;;5030521;28;20746;-65
2022/11/13 06:45:57;;;;;;;5.77;4.83;;;0.80;99.90;;;;;;5031303;28;20503;-65
2022/11/13 06:48:23;;;;;;;10.20;5.13;;;0.80;99.90;;;;;;5031296;28;20658;-65
2022/11/13 06:50:49;;;;;;;7.17;4.80;;;0.80;99.90;;;;;;5031540;28;20190;-65
2022/11/13 06:53:15;;;;;;;11.30;5.40;;;0.80;99.90;;;;;;5030926;28;20449;-65
2022/11/13 06:55:48;;;;;;;10.40;5.47;;;0.80;99.90;;;;;;5031664;28;20441;-65
2022/11/13 06:58:15;;;;;;;15.73;8.30;;;0.90;99.90;;;;;;5031151;28;20431;-65
2022/11/13 07:00:41;;;;;;;13.20;8.57;;;0.90;99.90;;;;;;5031198;28;20465;-65
2022/11/13 07:03:34;;;;;;;16.87;9.53;;;1.00;99.90;;;;;;5030756;28;20436;-65
2022/11/13 07:06:05;;;;;;;19.80;9.50;;;1.10;99.90;;;;;;5017161;28;20437;-65
2022/11/13 07:08:31;;;;;;;11.70;6.53;;;1.20;99.90;;;;;;5031066;28;20413;-65
2022/11/13 07:10:57;;;;;;;11.23;6.43;;;1.20;99.90;;;;;;5013668;28;20433;-65
2022/11/13 07:13:24;;;;;;;10.60;5.80;;;1.20;99.90;;;;;;5029948;28;20432;-65
2022/11/13 07:15:50;;;;;;;8.57;4.60;;;1.30;99.90;;;;;;5046388;28;20459;-65
2022/11/13 07:18:16;;;;;;;16.37;4.87;;;1.30;99.90;;;;;;5043028;28;20441;-65
2022/11/13 07:20:41;;;;;;;7.93;3.80;;;1.30;99.90;;;;;;5036519;28;20217;-65
2022/11/13 07:23:07;;;;;;;6.23;3.00;;;1.40;99.90;;;;;;5034353;28;20194;-65
2022/11/13 07:25:33;;;;;;;6.57;3.73;;;1.40;99.90;;;;;;5035072;28;20182;-65
2022/11/13 07:27:59;;;;;;;5.57;3.63;;;1.50;99.90;;;;;;5034600;28;20186;-65
2022/11/13 07:30:25;;;;;;;6.10;4.27;;;1.50;99.90;;;;;;5034723;28;20193;-66
2022/11/13 07:32:50;;;;;;;7.87;3.53;;;1.50;99.90;;;;;;5033293;28;20187;-65
2022/11/13 07:35:17;;;;;;;10.70;4.73;;;1.50;99.90;;;;;;5032179;28;21224;-66
2022/11/13 07:37:43;;;;;;;14.23;6.10;;;1.60;99.90;;;;;;5053252;28;20189;-66
2022/11/13 07:40:10;;;;;;;11.20;5.97;;;1.60;99.90;;;;;;5042953;28;20527;-66
2022/11/13 07:42:36;;;;;;;13.20;5.90;;;1.60;99.90;;;;;;5034293;28;20420;-65
2022/11/13 07:45:02;;;;;;;17.90;5.70;;;1.60;99.90;;;;;;5033795;28;20431;-65
2022/11/13 07:47:28;;;;;;;11.63;5.90;;;1.70;99.90;;;;;;5048020;28;20206;-65
2022/11/13 07:49:53;;;;;;;9.00;5.10;;;1.80;99.90;;;;;;5034428;28;20453;-65
2022/11/13 07:52:19;;;;;;;10.90;6.03;;;1.80;99.90;;;;;;5033954;28;20197;-65
2022/11/13 07:54:44;;;;;;;7.67;4.90;;;1.90;99.90;;;;;;5044875;28;20209;-66
2022/11/13 07:57:10;;;;;;;8.27;4.67;;;2.00;99.90;;;;;;5038082;28;20186;-65
2022/11/13 07:59:36;;;;;;;6.50;3.70;;;2.20;99.90;;;;;;5033231;28;20214;-65
2022/11/13 08:02:01;;;;;;;9.80;4.90;;;2.20;99.90;;;;;;5033500;28;20213;-65
2022/11/13 08:04:28;;;;;;;7.03;3.43;;;2.30;99.90;;;;;;5029977;28;20531;-65
2022/11/13 08:06:54;;;;;;;8.03;4.80;;;2.40;99.90;;;;;;5027891;28;20519;-65
2022/11/13 08:09:20;;;;;;;11.77;5.50;;;2.50;99.90;;;;;;5036496;28;20424;-65
2022/11/13 08:11:45;;;;;;;5.43;3.73;;;2.60;99.90;;;;;;5036058;28;20289;-65
2022/11/13 08:14:11;;;;;;;6.43;4.03;;;2.70;99.90;;;;;;5043251;28;20185;-65
2022/11/13 08:16:37;;;;;;;10.80;4.20;;;2.90;99.90;;;;;;5039346;28;20190;-65
2022/11/13 08:19:03;;;;;;;9.03;4.70;;;3.10;99.90;;;;;;5053560;28;20178;-65
2022/11/13 08:21:28;;;;;;;7.27;4.90;;;3.30;99.90;;;;;;5036038;28;20213;-65
2022/11/13 08:23:54;;;;;;;6.27;3.63;;;3.50;99.90;;;;;;5033537;28;20762;-65
2022/11/13 08:26:20;;;;;;;4.87;3.87;;;3.70;99.90;;;;;;5033491;28;20205;-65
2022/11/13 08:28:45;;;;;;;7.00;3.80;;;3.80;99.90;;;;;;5033204;28;20186;-65
2022/11/13 08:31:13;;;;;;;7.53;4.00;;;3.90;99.90;;;;;;5033368;28;20182;-65
2022/11/13 08:33:39;;;;;;;14.00;7.27;;;4.00;99.90;;;;;;5038398;28;20189;-65
2022/11/13 08:36:05;;;;;;;9.83;4.80;;;4.10;99.90;;;;;;5046991;28;20507;-65
2022/11/13 08:38:31;;;;;;;8.03;3.63;;;4.10;99.90;;;;;;5042132;28;21160;-65
2022/11/13 08:40:58;;;;;;;5.47;3.13;;;4.00;99.90;;;;;;5033307;28;20233;-65
2022/11/13 08:43:24;;;;;;;3.83;2.67;;;3.90;99.90;;;;;;5044217;28;20288;-65
2022/11/13 08:45:49;;;;;;;6.13;3.33;;;3.90;99.90;;;;;;5039006;28;20499;-65
2022/11/13 08:48:15;;;;;;;10.13;4.07;;;3.80;99.90;;;;;;5042044;28;20185;-65
2022/11/13 08:50:41;;;;;;;6.27;3.70;;;3.80;99.90;;;;;;5032985;28;20190;-65
2022/11/13 08:53:07;;;;;;;8.73;3.47;;;3.80;99.90;;;;;;5032491;28;20194;-65
2022/11/13 08:55:33;;;;;;;6.90;3.80;;;3.80;99.90;;;;;;5036132;28;20263;-65
2022/11/13 08:58:00;;;;;;;6.67;3.80;;;3.80;99.90;;;;;;5025817;28;20794;-65
2022/11/13 09:00:27;;;;;;;9.30;4.60;;;3.80;99.90;;;;;;5019289;28;20229;-65
2022/11/13 09:02:57;;;;;;;5.90;3.53;;;3.80;99.90;;;;;;5021306;28;20438;-65
2022/11/13 09:05:23;;;;;;;6.00;3.80;;;3.90;99.90;;;;;;5030940;28;20448;-65
2022/11/13 09:07:49;;;;;;;7.97;4.00;;;3.90;99.90;;;;;;5026813;28;20425;-65
2022/11/13 09:10:16;;;;;;;8.63;4.00;;;4.00;99.90;;;;;;5019870;28;20770;-65
2022/11/13 09:12:42;;;;;;;8.07;4.13;;;4.00;99.90;;;;;;5021798;28;20211;-65
2022/11/13 09:15:09;;;;;;;8.30;4.00;;;4.00;99.90;;;;;;5025446;28;20476;-65
2022/11/13 09:17:35;;;;;;;8.03;4.67;;;4.10;99.90;;;;;;5028821;28;20425;-65
2022/11/13 09:20:00;;;;;;;6.87;3.87;;;4.20;99.90;;;;;;5032991;28;20971;-64
2022/11/13 09:22:26;;;;;;;5.73;3.40;;;4.30;99.90;;;;;;5031655;28;20611;-64
2022/11/13 09:24:52;;;;;;;9.80;4.57;;;4.30;99.90;;;;;;5019234;28;20233;-64
2022/11/13 09:27:17;;;;;;;7.27;3.70;;;4.40;99.90;;;;;;5031871;28;20213;-65
2022/11/13 09:29:43;;;;;;;8.87;4.90;;;4.60;99.90;;;;;;5029942;28;20194;-64
2022/11/13 09:32:08;;;;;;;6.20;3.63;;;4.70;99.90;;;;;;5028590;28;20266;-62
2022/11/13 09:34:34;;;;;;;8.40;4.10;;;4.80;99.90;;;;;;5033192;28;20213;-62
2022/11/13 09:36:59;;;;;;;6.20;2.93;;;5.10;99.90;;;;;;5028244;28;20190;-61
2022/11/13 09:39:25;;;;;;;5.97;2.73;;;5.30;99.90;;;;;;5040606;28;20619;-62
2022/11/13 09:42:22;;;;;;;7.47;3.50;;;5.50;99.90;;;;;;5030385;28;20209;-62
2022/11/13 09:44:54;;;;;;;7.97;3.30;;;5.60;99.90;;;;;;5022149;28;20200;-61
2022/11/13 09:47:29;;;;;;;4.90;2.70;;;5.70;99.90;;;;;;5035143;28;20773;-61
2022/11/13 09:50:06;;;;;;;5.43;2.60;;;5.80;99.90;;;;;;5034567;28;20463;-62
2022/11/13 09:52:44;;;;;;;4.80;3.27;;;5.90;99.90;;;;;;5024044;28;20438;-63
2022/11/13 09:55:15;;;;;;;5.73;3.37;;;6.00;99.90;;;;;;5033500;28;20483;-62
2022/11/13 09:57:53;;;;;;;8.33;3.23;;;6.30;99.90;;;;;;5028599;28;20507;-63
2022/11/13 10:00:21;;;;;;;4.57;2.47;;;6.40;99.90;;;;;;5011553;28;20878;-63
2022/11/13 10:03:13;;;;;;;6.23;3.27;;;6.50;99.90;;;;;;5030012;28;20511;-62
2022/11/13 10:05:50;;;;;;;3.70;2.70;;;6.70;99.90;;;;;;5018395;28;20417;-63
2022/11/13 10:08:26;;;;;;;5.90;2.90;;;6.90;99.90;;;;;;5030118;28;20432;-63
2022/11/13 10:11:04;;;;;;;4.13;2.23;;;7.00;99.90;;;;;;5030412;28;20413;-63
2022/11/13 10:13:49;;;;;;;4.90;2.70;;;7.20;99.90;;;;;;5028846;28;20425;-64
2022/11/13 10:16:31;;;;;;;5.07;2.83;;;7.30;99.90;;;;;;5029910;28;20447;-63
2022/11/13 10:19:21;;;;;;;4.20;2.57;;;7.30;99.90;;;;;;5030006;28;20428;-64
2022/11/13 10:21:58;;;;;;;5.43;3.03;;;7.50;99.90;;;;;;5017167;28;20420;-64
2022/11/13 10:24:28;;;;;;;4.70;2.80;;;7.70;99.90;;;;;;5030163;28;20430;-64
2022/11/13 10:26:58;;;;;;;5.97;2.63;;;7.80;99.90;;;;;;5029902;28;20936;-64
2022/11/13 10:29:27;;;;;;;7.87;3.07;;;7.90;99.90;;;;;;5026626;28;20500;-64
2022/11/13 10:31:53;;;;;;;5.13;2.87;;;8.00;99.90;;;;;;5029718;28;21055;-63
2022/11/13 10:34:19;;;;;;;4.13;2.60;;;8.00;99.90;;;;;;5028760;28;20512;-64
2022/11/13 10:36:53;;;;;;;3.80;2.30;;;8.10;99.90;;;;;;5040014;28;20920;-64
2022/11/13 10:39:19;;;;;;;6.17;2.67;;;8.20;99.90;;;;;;5036353;28;20461;-64
2022/11/13 10:41:51;;;;;;;4.83;2.50;;;8.40;99.90;;;;;;5029903;28;20827;-63
2022/11/13 10:44:21;;;;;;;3.67;2.00;;;8.60;99.90;;;;;;5029308;28;20184;-64
2022/11/13 10:46:47;;;;;;;10.50;4.00;;;8.80;99.90;;;;;;5030131;28;20436;-64
2022/11/13 10:49:18;;;;;;;3.40;2.40;;;8.90;99.90;;;;;;5032697;28;20535;-63
2022/11/13 10:51:52;;;;;;;5.87;2.60;;;8.80;99.90;;;;;;5032752;28;20425;-64
2022/11/13 10:54:30;;;;;;;4.97;3.00;;;9.00;99.90;;;;;;5033784;28;20979;-63
2022/11/13 10:57:02;;;;;;;7.43;3.00;;;9.00;99.90;;;;;;5033570;28;20483;-64
2022/11/13 10:59:42;;;;;;;4.63;2.50;;;8.80;99.90;;;;;;5033159;28;20539;-63
2022/11/13 11:02:10;;;;;;;5.43;2.80;;;8.90;99.90;;;;;;5033374;28;20911;-64
2022/11/13 11:04:35;;;;;;;5.10;2.93;;;9.10;99.90;;;;;;5033674;28;21248;-64
2022/11/13 11:07:13;;;;;;;6.40;2.90;;;9.20;99.90;;;;;;5033658;28;20429;-64
2022/11/13 11:09:41;;;;;;;4.23;2.63;;;9.00;99.90;;;;;;5033519;28;20644;-64
2022/11/13 11:12:14;;;;;;;4.00;2.50;;;9.30;99.90;;;;;;5032617;28;20463;-63
2022/11/13 11:15:04;;;;;;;6.00;3.30;;;9.40;99.90;;;;;;5024086;28;20429;-64
2022/11/13 11:17:36;;;;;;;6.73;2.80;;;9.60;99.90;;;;;;5011881;28;20460;-63
2022/11/13 11:20:12;;;;;;;6.27;2.77;;;9.50;99.90;;;;;;5034405;28;20820;-63
2022/11/13 11:22:39;;;;;;;4.50;2.67;;;9.60;99.90;;;;;;5025031;28;20409;-63
2022/11/13 11:25:13;;;;;;;5.40;3.00;;;9.80;99.90;;;;;;5030790;28;20447;-63
2022/11/13 11:27:50;;;;;;;4.50;2.50;;;9.70;99.90;;;;;;5036227;28;20631;-63
2022/11/13 11:30:22;;;;;;;7.90;2.97;;;9.70;99.90;;;;;;5030371;28;21134;-63
2022/11/13 11:33:27;;;;;;;4.47;2.63;;;9.90;99.90;;;;;;5029103;28;20421;-63
2022/11/13 11:36:04;;;;;;;4.73;2.27;;;9.80;99.90;;;;;;5037386;28;20508;-63
2022/11/13 11:38:51;;;;;;;5.80;2.97;;;9.90;99.90;;;;;;5033347;28;20456;-63
2022/11/13 11:41:20;;;;;;;5.17;2.30;;;10.20;99.50;;;;;;5021035;28;20436;-63
2022/11/13 11:44:00;;;;;;;5.53;2.60;;;10.20;98.60;;;;;;5031864;28;20857;-63
2022/11/13 11:46:28;;;;;;;8.10;3.20;;;10.10;99.90;;;;;;5032291;28;20413;-63
2022/11/13 11:48:59;;;;;;;3.40;2.00;;;10.10;99.90;;;;;;5032790;28;20504;-63
2022/11/13 11:51:53;;;;;;;7.67;3.10;;;10.20;99.40;;;;;;5032927;28;20421;-64
2022/11/13 11:54:47;;;;;;;4.73;2.37;;;10.20;99.60;;;;;;5021285;28;20437;-63
2022/11/13 11:57:53;;;;;;;5.87;2.50;;;10.40;99.00;;;;;;5033043;28;20425;-63
2022/11/13 12:00:19;;;;;;;4.30;2.80;;;10.20;99.70;;;;;;5031174;28;20464;-63
2022/11/13 12:02:54;;;;;;;4.90;3.10;;;10.10;99.50;;;;;;5029265;28;20421;-63
2022/11/13 12:05:34;;;;;;;7.23;3.13;;;10.20;99.90;;;;;;5034656;28;20469;-63
2022/11/13 12:08:21;;;;;;;4.37;2.70;;;10.20;99.90;;;;;;5022874;28;20445;-64
2022/11/13 12:11:18;;;;;;;3.60;2.47;;;10.40;99.70;;;;;;5040324;28;20413;-63
2022/11/13 12:14:02;;;;;;;5.50;2.57;;;10.30;99.90;;;;;;5019277;28;20425;-64
2022/11/13 12:16:44;;;;;;;6.47;2.40;;;10.30;99.90;;;;;;5036247;28;20756;-63
2022/11/13 12:19:34;;;;;;;6.00;2.80;;;10.40;99.70;;;;;;5033426;28;20887;-63
2022/11/13 12:22:14;;;;;;;5.30;3.10;;;10.60;99.50;;;;;;5025800;28;20413;-63
2022/11/13 12:25:06;;;;;;;4.67;2.60;;;10.50;99.20;;;;;;5024263;28;20429;-63
2022/11/13 12:27:44;;;;;;;4.60;2.40;;;10.40;99.80;;;;;;5027811;28;20429;-63
2022/11/13 12:30:20;;;;;;;7.10;2.63;;;10.40;99.50;;;;;;5027408;28;20452;-63
2022/11/13 12:33:01;;;;;;;5.13;2.37;;;10.50;99.30;;;;;;5031476;28;20420;-63
2022/11/13 12:35:28;;;;;;;11.90;4.00;;;10.30;99.70;;;;;;5032789;28;20421;-63
2022/11/13 12:38:27;;;;;;;4.40;2.50;;;10.40;99.80;;;;;;5018783;28;20948;-62
2022/11/13 12:41:04;;;;;;;4.50;2.27;;;10.40;99.60;;;;;;5031234;28;20503;-63
2022/11/13 12:43:57;;;;;;;4.10;2.07;;;10.40;99.70;;;;;;5030303;28;20420;-63
2022/11/13 12:46:33;;;;;;;5.33;3.23;;;10.50;99.80;;;;;;5020315;28;20565;-63
2022/11/13 12:48:59;;;;;;;3.30;2.17;;;10.50;99.90;;;;;;5030933;28;20425;-63
2022/11/13 12:51:39;;;;;;;8.73;2.50;;;10.70;99.60;;;;;;5009766;28;20441;-63
2022/11/13 12:54:08;;;;;;;7.10;3.20;;;10.70;99.80;;;;;;5030617;28;20475;-63
2022/11/13 12:56:34;;;;;;;8.07;2.83;;;10.70;99.70;;;;;;5030398;28;20423;-63
2022/11/13 12:59:15;;;;;;;8.00;2.77;;;10.70;99.50;;;;;;5030615;28;20405;-63
2022/11/13 13:01:51;;;;;;;6.90;2.80;;;10.90;99.60;;;;;;5030822;28;20439;-63
2022/11/13 13:04:16;;;;;;;3.93;2.73;;;10.90;99.80;;;;;;5031563;28;20423;-63
2022/11/13 13:07:03;;;;;;;5.20;2.30;;;10.90;99.60;;;;;;5039679;28;20409;-63